King Hakan — V7WI2 — position and weather

sailwx.info

Track history (hours):
 
Tides and Currents Weather Stations Pressure Air Temp Water Temp Dewpoint Dewpoint Depression Visibility Wind Speed Wind Dir Waves Ship Positions

King Hakan

Last reported at 2015-May-30 10:17 UTC. Time now 2015-May-30 10:37 UTC.
Position N 29°38' E 122°27'.

Length 229 m; draft 13.1 m.

Type: Cargo ship. MMSI: 538090439.

Date/timePositionNaut miles runAvg speedWind from/ knotsBaromVisibWave heightAir tempDewpointWater temp
2015-May-30 10:17N 29°38' E 122°27'6 7.1
2015-May-30 09:22N 29°33' E 122°33'21 9.8
2015-May-30 07:13N 29°13' E 122°36'  
2015-May-22 22:28N 01°16' E 104°11'1212.8
2015-May-22 21:33N 01°14' E 103°60'3 1.2
2015-May-22 19:10N 01°17' E 103°58'0 0.1
2015-May-22 18:28N 01°17' E 103°58'0 0.2
2015-May-22 17:16N 01°17' E 103°58'0 0.1
2015-May-22 16:22N 01°17' E 103°58'0 0.0
2015-May-22 15:28N 01°17' E 103°58'0 0.0
2015-May-22 14:28N 01°17' E 103°58'0 0.0
2015-May-22 13:28N 01°17' E 103°58'0 0.0
2015-May-22 12:10N 01°17' E 103°58'0 0.0
2015-May-22 11:22N 01°17' E 103°58'0 0.0
2015-May-22 10:28N 01°17' E 103°58'0 0.3
2015-May-22 09:33N 01°17' E 103°58'2 2.5
2015-May-22 08:33N 01°14' E 103°57'3 2.7
2015-May-22 07:33N 01°13' E 103°55'9011.3
2015-May-21 23:33N 01°47' E 102°31'1110.9
2015-May-21 22:32N 01°51' E 102°21'  
Track history (hours):
 
Tides and Currents Weather Stations Pressure Air Temp Water Temp Dewpoint Dewpoint Depression Visibility Wind Speed Wind Dir Waves Ship Positions

King Hakan

Last reported at 2015-May-30 10:17 UTC. Time now 2015-May-30 10:37 UTC.
Position N 29°38' E 122°27'.

Length 229 m; draft 13.1 m.

Type: Cargo ship. MMSI: 538090439.

Date/timePositionNaut miles runAvg speedWind from/ knotsBaromVisibWave heightAir tempDewpointWater temp
2015-May-30 10:17N 29°38' E 122°27'6 7.1
2015-May-30 09:22N 29°33' E 122°33'21 9.8
2015-May-30 07:13N 29°13' E 122°36'  
2015-May-22 22:28N 01°16' E 104°11'1212.8
2015-May-22 21:33N 01°14' E 103°60'3 1.2
2015-May-22 19:10N 01°17' E 103°58'0 0.1
2015-May-22 18:28N 01°17' E 103°58'0 0.2
2015-May-22 17:16N 01°17' E 103°58'0 0.1
2015-May-22 16:22N 01°17' E 103°58'0 0.0
2015-May-22 15:28N 01°17' E 103°58'0 0.0
2015-May-22 14:28N 01°17' E 103°58'0 0.0
2015-May-22 13:28N 01°17' E 103°58'0 0.0
2015-May-22 12:10N 01°17' E 103°58'0 0.0
2015-May-22 11:22N 01°17' E 103°58'0 0.0
2015-May-22 10:28N 01°17' E 103°58'0 0.3
2015-May-22 09:33N 01°17' E 103°58'2 2.5
2015-May-22 08:33N 01°14' E 103°57'3 2.7
2015-May-22 07:33N 01°13' E 103°55'9011.3
2015-May-21 23:33N 01°47' E 102°31'1110.9
2015-May-21 22:32N 01°51' E 102°21'  

Dump ship's entire track history